sensor_id;sensor_type;location;lat;lon;timestamp;P1;durP1;ratioP1;P2;durP2;ratioP2
41263;SDS011;26998;48.714;9.414;2022-07-23T00:01:53;6.93;;;6.13;;
41263;SDS011;26998;48.714;9.414;2022-07-23T00:04:19;7.38;;;6.68;;
41263;SDS011;26998;48.714;9.414;2022-07-23T00:06:46;7.07;;;6.22;;
41263;SDS011;26998;48.714;9.414;2022-07-23T00:09:12;11.05;;;6.82;;
41263;SDS011;26998;48.714;9.414;2022-07-23T00:11:39;6.63;;;6.03;;
41263;SDS011;26998;48.714;9.414;2022-07-23T00:14:05;6.05;;;5.55;;
41263;SDS011;26998;48.714;9.414;2022-07-23T00:16:32;9.63;;;5.97;;
41263;SDS011;26998;48.714;9.414;2022-07-23T00:18:58;6.35;;;5.75;;
41263;SDS011;26998;48.714;9.414;2022-07-23T00:21:25;7.57;;;6.07;;
41263;SDS011;26998;48.714;9.414;2022-07-23T00:23:54;6.93;;;6.22;;
41263;SDS011;26998;48.714;9.414;2022-07-23T00:26:21;6.32;;;5.72;;
41263;SDS011;26998;48.714;9.414;2022-07-23T00:28:47;7.13;;;6.03;;
41263;SDS011;26998;48.714;9.414;2022-07-23T00:31:13;6.78;;;6.05;;
41263;SDS011;26998;48.714;9.414;2022-07-23T00:33:40;6.43;;;5.85;;
41263;SDS011;26998;48.714;9.414;2022-07-23T00:36:07;5.95;;;5.45;;
41263;SDS011;26998;48.714;9.414;2022-07-23T00:38:34;6.45;;;5.03;;
41263;SDS011;26998;48.714;9.414;2022-07-23T00:41:00;6.13;;;5.60;;
41263;SDS011;26998;48.714;9.414;2022-07-23T00:43:27;5.85;;;5.22;;
41263;SDS011;26998;48.714;9.414;2022-07-23T00:45:53;6.03;;;5.47;;
41263;SDS011;26998;48.714;9.414;2022-07-23T00:48:19;6.97;;;5.85;;
41263;SDS011;26998;48.714;9.414;2022-07-23T00:50:46;5.95;;;5.45;;
41263;SDS011;26998;48.714;9.414;2022-07-23T00:53:12;9.05;;;5.82;;
41263;SDS011;26998;48.714;9.414;2022-07-23T00:55:39;7.82;;;5.55;;
41263;SDS011;26998;48.714;9.414;2022-07-23T00:58:05;6.45;;;5.75;;
41263;SDS011;26998;48.714;9.414;2022-07-23T01:00:32;7.20;;;5.75;;
41263;SDS011;26998;48.714;9.414;2022-07-23T01:02:59;8.10;;;5.70;;
41263;SDS011;26998;48.714;9.414;2022-07-23T01:05:25;5.63;;;5.10;;
41263;SDS011;26998;48.714;9.414;2022-07-23T01:07:52;6.68;;;4.97;;
41263;SDS011;26998;48.714;9.414;2022-07-23T01:10:21;6.20;;;5.13;;
41263;SDS011;26998;48.714;9.414;2022-07-23T01:12:48;5.35;;;4.45;;
41263;SDS011;26998;48.714;9.414;2022-07-23T01:15:15;5.60;;;4.70;;
41263;SDS011;26998;48.714;9.414;2022-07-23T01:17:41;6.57;;;5.05;;
41263;SDS011;26998;48.714;9.414;2022-07-23T01:20:08;5.57;;;4.90;;
41263;SDS011;26998;48.714;9.414;2022-07-23T01:22:34;6.70;;;4.90;;
41263;SDS011;26998;48.714;9.414;2022-07-23T01:25:01;5.25;;;4.72;;
41263;SDS011;26998;48.714;9.414;2022-07-23T01:27:28;4.97;;;4.47;;
41263;SDS011;26998;48.714;9.414;2022-07-23T01:29:54;4.35;;;3.95;;
41263;SDS011;26998;48.714;9.414;2022-07-23T01:32:22;5.05;;;4.65;;
41263;SDS011;26998;48.714;9.414;2022-07-23T01:34:49;7.10;;;4.43;;
41263;SDS011;26998;48.714;9.414;2022-07-23T01:37:15;5.75;;;5.25;;
41263;SDS011;26998;48.714;9.414;2022-07-23T01:39:42;5.97;;;5.03;;
41263;SDS011;26998;48.714;9.414;2022-07-23T01:42:08;5.43;;;4.88;;
41263;SDS011;26998;48.714;9.414;2022-07-23T01:44:35;5.43;;;4.93;;
41263;SDS011;26998;48.714;9.414;2022-07-23T01:47:01;5.63;;;5.13;;
41263;SDS011;26998;48.714;9.414;2022-07-23T01:49:28;7.80;;;5.65;;
41263;SDS011;26998;48.714;9.414;2022-07-23T01:51:54;9.45;;;5.60;;
41263;SDS011;26998;48.714;9.414;2022-07-23T01:54:21;7.47;;;6.78;;
41263;SDS011;26998;48.714;9.414;2022-07-23T01:56:47;6.50;;;5.90;;
41263;SDS011;26998;48.714;9.414;2022-07-23T01:59:13;10.52;;;5.60;;
41263;SDS011;26998;48.714;9.414;2022-07-23T02:01:40;7.10;;;6.00;;
41263;SDS011;26998;48.714;9.414;2022-07-23T02:04:06;6.63;;;5.88;;
41263;SDS011;26998;48.714;9.414;2022-07-23T02:06:33;6.25;;;5.63;;
41263;SDS011;26998;48.714;9.414;2022-07-23T02:08:59;6.57;;;5.47;;
41263;SDS011;26998;48.714;9.414;2022-07-23T02:11:26;6.60;;;5.93;;
41263;SDS011;26998;48.714;9.414;2022-07-23T02:13:53;6.13;;;5.05;;
41263;SDS011;26998;48.714;9.414;2022-07-23T02:16:19;6.53;;;5.65;;
41263;SDS011;26998;48.714;9.414;2022-07-23T02:18:45;6.47;;;5.88;;
41263;SDS011;26998;48.714;9.414;2022-07-23T02:21:12;7.13;;;5.70;;
41263;SDS011;26998;48.714;9.414;2022-07-23T02:23:39;7.05;;;6.18;;
41263;SDS011;26998;48.714;9.414;2022-07-23T02:26:05;8.60;;;5.95;;
41263;SDS011;26998;48.714;9.414;2022-07-23T02:28:32;7.40;;;5.90;;
41263;SDS011;26998;48.714;9.414;2022-07-23T02:30:58;7.60;;;6.80;;
41263;SDS011;26998;48.714;9.414;2022-07-23T02:33:25;8.43;;;6.13;;
41263;SDS011;26998;48.714;9.414;2022-07-23T02:35:51;6.72;;;6.13;;
41263;SDS011;26998;48.714;9.414;2022-07-23T02:38:17;7.68;;;6.85;;
41263;SDS011;26998;48.714;9.414;2022-07-23T02:40:44;7.82;;;6.43;;
41263;SDS011;26998;48.714;9.414;2022-07-23T02:43:10;8.50;;;6.72;;
41263;SDS011;26998;48.714;9.414;2022-07-23T02:45:37;7.43;;;6.63;;
41263;SDS011;26998;48.714;9.414;2022-07-23T02:48:03;6.35;;;5.75;;
41263;SDS011;26998;48.714;9.414;2022-07-23T02:50:30;7.05;;;6.35;;
41263;SDS011;26998;48.714;9.414;2022-07-23T02:52:56;7.03;;;6.32;;
41263;SDS011;26998;48.714;9.414;2022-07-23T02:55:23;8.02;;;6.45;;
41263;SDS011;26998;48.714;9.414;2022-07-23T02:57:49;7.30;;;6.45;;
41263;SDS011;26998;48.714;9.414;2022-07-23T03:00:16;7.78;;;7.00;;
41263;SDS011;26998;48.714;9.414;2022-07-23T03:02:42;7.10;;;6.45;;
41263;SDS011;26998;48.714;9.414;2022-07-23T03:05:09;8.70;;;7.10;;
41263;SDS011;26998;48.714;9.414;2022-07-23T03:07:35;9.85;;;7.20;;
41263;SDS011;26998;48.714;9.414;2022-07-23T03:10:02;16.77;;;7.88;;
41263;SDS011;26998;48.714;9.414;2022-07-23T03:12:29;7.25;;;6.55;;
41263;SDS011;26998;48.714;9.414;2022-07-23T03:14:55;7.70;;;6.15;;
41263;SDS011;26998;48.714;9.414;2022-07-23T03:17:22;7.88;;;6.40;;
41263;SDS011;26998;48.714;9.414;2022-07-23T03:19:48;7.57;;;6.88;;
41263;SDS011;26998;48.714;9.414;2022-07-23T03:22:15;7.25;;;5.88;;
41263;SDS011;26998;48.714;9.414;2022-07-23T03:24:41;6.70;;;5.45;;
41263;SDS011;26998;48.714;9.414;2022-07-23T03:27:07;5.80;;;5.30;;
41263;SDS011;26998;48.714;9.414;2022-07-23T03:29:34;7.55;;;5.45;;
41263;SDS011;26998;48.714;9.414;2022-07-23T03:32:00;6.07;;;5.47;;
41263;SDS011;26998;48.714;9.414;2022-07-23T03:34:27;8.10;;;6.50;;
41263;SDS011;26998;48.714;9.414;2022-07-23T03:36:53;9.48;;;6.07;;
41263;SDS011;26998;48.714;9.414;2022-07-23T03:39:19;6.50;;;5.82;;
41263;SDS011;26998;48.714;9.414;2022-07-23T03:41:46;7.65;;;5.47;;
41263;SDS011;26998;48.714;9.414;2022-07-23T03:44:12;7.55;;;6.13;;
41263;SDS011;26998;48.714;9.414;2022-07-23T03:46:38;7.88;;;6.45;;
41263;SDS011;26998;48.714;9.414;2022-07-23T03:49:05;8.00;;;6.43;;
41263;SDS011;26998;48.714;9.414;2022-07-23T03:51:32;7.55;;;6.82;;
41263;SDS011;26998;48.714;9.414;2022-07-23T03:53:59;8.23;;;7.38;;
41263;SDS011;26998;48.714;9.414;2022-07-23T03:56:25;8.88;;;7.18;;
41263;SDS011;26998;48.714;9.414;2022-07-23T03:58:52;8.57;;;7.28;;
41263;SDS011;26998;48.714;9.414;2022-07-23T04:01:18;10.20;;;7.47;;
41263;SDS011;26998;48.714;9.414;2022-07-23T04:03:45;8.27;;;7.15;;
41263;SDS011;26998;48.714;9.414;2022-07-23T04:06:11;8.43;;;7.25;;
41263;SDS011;26998;48.714;9.414;2022-07-23T04:08:39;8.68;;;6.80;;
41263;SDS011;26998;48.714;9.414;2022-07-23T04:11:05;8.57;;;7.45;;
41263;SDS011;26998;48.714;9.414;2022-07-23T04:13:32;11.82;;;7.47;;
41263;SDS011;26998;48.714;9.414;2022-07-23T04:15:58;10.82;;;7.93;;
41263;SDS011;26998;48.714;9.414;2022-07-23T04:18:25;10.95;;;7.63;;
41263;SDS011;26998;48.714;9.414;2022-07-23T04:20:51;8.95;;;7.13;;
41263;SDS011;26998;48.714;9.414;2022-07-23T04:23:18;7.85;;;7.05;;
41263;SDS011;26998;48.714;9.414;2022-07-23T04:25:45;10.07;;;7.10;;
41263;SDS011;26998;48.714;9.414;2022-07-23T04:28:12;7.53;;;6.88;;
41263;SDS011;26998;48.714;9.414;2022-07-23T04:30:38;9.05;;;6.70;;
41263;SDS011;26998;48.714;9.414;2022-07-23T04:33:05;8.05;;;7.32;;
41263;SDS011;26998;48.714;9.414;2022-07-23T04:35:31;9.27;;;7.70;;
41263;SDS011;26998;48.714;9.414;2022-07-23T04:37:58;8.90;;;6.90;;
41263;SDS011;26998;48.714;9.414;2022-07-23T04:40:24;7.68;;;6.97;;
41263;SDS011;26998;48.714;9.414;2022-07-23T04:42:51;8.77;;;7.35;;
41263;SDS011;26998;48.714;9.414;2022-07-23T04:45:17;9.18;;;7.45;;
41263;SDS011;26998;48.714;9.414;2022-07-23T04:47:44;9.10;;;7.00;;
41263;SDS011;26998;48.714;9.414;2022-07-23T04:50:11;8.13;;;7.25;;
41263;SDS011;26998;48.714;9.414;2022-07-23T04:52:37;8.25;;;7.10;;
41263;SDS011;26998;48.714;9.414;2022-07-23T04:55:05;7.25;;;6.55;;
41263;SDS011;26998;48.714;9.414;2022-07-23T04:57:32;8.05;;;6.35;;
41263;SDS011;26998;48.714;9.414;2022-07-23T04:59:58;8.48;;;7.00;;
41263;SDS011;26998;48.714;9.414;2022-07-23T05:02:25;7.35;;;6.65;;
41263;SDS011;26998;48.714;9.414;2022-07-23T05:04:51;12.18;;;7.03;;
41263;SDS011;26998;48.714;9.414;2022-07-23T05:07:17;7.90;;;6.22;;
41263;SDS011;26998;48.714;9.414;2022-07-23T05:09:44;7.40;;;6.15;;
41263;SDS011;26998;48.714;9.414;2022-07-23T05:12:10;15.93;;;6.50;;
41263;SDS011;26998;48.714;9.414;2022-07-23T05:14:37;6.47;;;5.85;;
41263;SDS011;26998;48.714;9.414;2022-07-23T05:17:03;6.85;;;6.18;;
41263;SDS011;26998;48.714;9.414;2022-07-23T05:19:30;9.35;;;6.30;;
41263;SDS011;26998;48.714;9.414;2022-07-23T05:21:56;6.57;;;5.90;;
41263;SDS011;26998;48.714;9.414;2022-07-23T05:24:23;6.68;;;6.15;;
41263;SDS011;26998;48.714;9.414;2022-07-23T05:26:49;7.20;;;6.50;;
41263;SDS011;26998;48.714;9.414;2022-07-23T05:29:16;6.57;;;6.07;;
41263;SDS011;26998;48.714;9.414;2022-07-23T05:31:43;7.63;;;6.45;;
41263;SDS011;26998;48.714;9.414;2022-07-23T05:34:09;6.65;;;6.05;;
41263;SDS011;26998;48.714;9.414;2022-07-23T05:36:42;6.60;;;5.93;;
41263;SDS011;26998;48.714;9.414;2022-07-23T05:39:09;7.72;;;6.90;;
41263;SDS011;26998;48.714;9.414;2022-07-23T05:41:35;7.28;;;6.43;;
41263;SDS011;26998;48.714;9.414;2022-07-23T05:44:02;8.18;;;6.30;;
41263;SDS011;26998;48.714;9.414;2022-07-23T05:46:28;9.57;;;7.40;;
41263;SDS011;26998;48.714;9.414;2022-07-23T05:48:55;7.40;;;6.80;;
41263;SDS011;26998;48.714;9.414;2022-07-23T05:51:21;7.47;;;6.45;;
41263;SDS011;26998;48.714;9.414;2022-07-23T05:53:49;9.38;;;7.25;;
41263;SDS011;26998;48.714;9.414;2022-07-23T05:56:16;6.88;;;6.28;;
41263;SDS011;26998;48.714;9.414;2022-07-23T05:58:44;7.82;;;6.82;;
41263;SDS011;26998;48.714;9.414;2022-07-23T06:01:10;7.28;;;6.68;;
41263;SDS011;26998;48.714;9.414;2022-07-23T06:03:37;10.05;;;7.30;;
41263;SDS011;26998;48.714;9.414;2022-07-23T06:06:04;8.35;;;6.28;;
41263;SDS011;26998;48.714;9.414;2022-07-23T06:08:31;9.23;;;6.97;;
41263;SDS011;26998;48.714;9.414;2022-07-23T06:10:58;9.02;;;6.70;;
41263;SDS011;26998;48.714;9.414;2022-07-23T06:13:24;7.60;;;6.90;;
41263;SDS011;26998;48.714;9.414;2022-07-23T06:15:51;7.53;;;6.72;;
41263;SDS011;26998;48.714;9.414;2022-07-23T06:18:17;6.65;;;6.00;;
41263;SDS011;26998;48.714;9.414;2022-07-23T06:20:44;7.25;;;6.30;;
41263;SDS011;26998;48.714;9.414;2022-07-23T06:23:15;7.55;;;6.68;;
41263;SDS011;26998;48.714;9.414;2022-07-23T06:25:42;9.07;;;6.43;;
41263;SDS011;26998;48.714;9.414;2022-07-23T06:28:08;8.65;;;6.40;;
41263;SDS011;26998;48.714;9.414;2022-07-23T06:30:34;7.35;;;6.35;;
41263;SDS011;26998;48.714;9.414;2022-07-23T06:33:01;8.40;;;6.47;;
41263;SDS011;26998;48.714;9.414;2022-07-23T06:35:27;6.70;;;6.07;;
41263;SDS011;26998;48.714;9.414;2022-07-23T06:37:54;7.78;;;6.28;;
41263;SDS011;26998;48.714;9.414;2022-07-23T06:40:21;8.10;;;6.20;;
41263;SDS011;26998;48.714;9.414;2022-07-23T06:42:47;6.63;;;6.03;;
41263;SDS011;26998;48.714;9.414;2022-07-23T06:45:13;7.20;;;5.82;;
41263;SDS011;26998;48.714;9.414;2022-07-23T06:47:40;6.43;;;5.85;;
41263;SDS011;26998;48.714;9.414;2022-07-23T06:50:06;6.55;;;5.78;;
41263;SDS011;26998;48.714;9.414;2022-07-23T06:52:33;7.50;;;6.70;;
41263;SDS011;26998;48.714;9.414;2022-07-23T06:55:05;7.07;;;6.32;;
41263;SDS011;26998;48.714;9.414;2022-07-23T06:57:32;7.38;;;6.50;;
41263;SDS011;26998;48.714;9.414;2022-07-23T07:00:00;6.80;;;6.10;;
41263;SDS011;26998;48.714;9.414;2022-07-23T07:02:26;6.85;;;6.22;;
41263;SDS011;26998;48.714;9.414;2022-07-23T07:04:53;9.82;;;8.32;;
41263;SDS011;26998;48.714;9.414;2022-07-23T07:07:19;7.60;;;6.88;;
41263;SDS011;26998;48.714;9.414;2022-07-23T07:09:45;7.75;;;6.95;;
41263;SDS011;26998;48.714;9.414;2022-07-23T07:12:13;7.20;;;6.50;;
41263;SDS011;26998;48.714;9.414;2022-07-23T07:14:40;8.23;;;6.82;;
41263;SDS011;26998;48.714;9.414;2022-07-23T07:17:06;7.65;;;6.85;;
41263;SDS011;26998;48.714;9.414;2022-07-23T07:19:33;8.25;;;7.45;;
41263;SDS011;26998;48.714;9.414;2022-07-23T07:21:59;7.53;;;6.93;;
41263;SDS011;26998;48.714;9.414;2022-07-23T07:24:26;7.03;;;6.43;;
41263;SDS011;26998;48.714;9.414;2022-07-23T07:26:59;7.30;;;6.65;;
41263;SDS011;26998;48.714;9.414;2022-07-23T07:29:26;7.20;;;6.60;;
41263;SDS011;26998;48.714;9.414;2022-07-23T07:31:52;8.13;;;7.22;;
41263;SDS011;26998;48.714;9.414;2022-07-23T07:34:18;7.20;;;6.50;;
41263;SDS011;26998;48.714;9.414;2022-07-23T07:36:45;9.43;;;6.88;;
41263;SDS011;26998;48.714;9.414;2022-07-23T07:39:12;8.88;;;6.45;;
41263;SDS011;26998;48.714;9.414;2022-07-23T07:41:38;6.97;;;6.28;;
41263;SDS011;26998;48.714;9.414;2022-07-23T07:44:04;7.25;;;6.45;;
41263;SDS011;26998;48.714;9.414;2022-07-23T07:46:31;12.13;;;6.45;;
41263;SDS011;26998;48.714;9.414;2022-07-23T07:48:57;7.30;;;6.55;;
41263;SDS011;26998;48.714;9.414;2022-07-23T07:51:24;7.18;;;5.85;;
41263;SDS011;26998;48.714;9.414;2022-07-23T07:53:51;7.28;;;6.05;;
41263;SDS011;26998;48.714;9.414;2022-07-23T07:56:18;6.70;;;6.10;;
41263;SDS011;26998;48.714;9.414;2022-07-23T07:58:44;7.75;;;5.55;;
41263;SDS011;26998;48.714;9.414;2022-07-23T08:01:11;6.13;;;5.40;;
41263;SDS011;26998;48.714;9.414;2022-07-23T08:03:37;6.78;;;6.10;;
41263;SDS011;26998;48.714;9.414;2022-07-23T08:06:04;8.70;;;6.45;;
41263;SDS011;26998;48.714;9.414;2022-07-23T08:08:30;7.95;;;5.63;;
41263;SDS011;26998;48.714;9.414;2022-07-23T08:10:56;7.15;;;5.43;;
41263;SDS011;26998;48.714;9.414;2022-07-23T08:13:23;6.65;;;5.82;;
41263;SDS011;26998;48.714;9.414;2022-07-23T08:15:49;6.82;;;5.25;;
41263;SDS011;26998;48.714;9.414;2022-07-23T08:18:17;7.78;;;5.93;;
41263;SDS011;26998;48.714;9.414;2022-07-23T08:20:44;7.72;;;5.80;;
41263;SDS011;26998;48.714;9.414;2022-07-23T08:23:10;6.65;;;5.85;;
41263;SDS011;26998;48.714;9.414;2022-07-23T08:25:37;8.73;;;6.53;;
41263;SDS011;26998;48.714;9.414;2022-07-23T08:28:06;6.88;;;5.47;;
41263;SDS011;26998;48.714;9.414;2022-07-23T08:30:34;7.35;;;5.72;;
41263;SDS011;26998;48.714;9.414;2022-07-23T08:33:03;8.18;;;6.47;;
41263;SDS011;26998;48.714;9.414;2022-07-23T08:35:55;6.05;;;5.55;;
41263;SDS011;26998;48.714;9.414;2022-07-23T08:38:22;8.93;;;6.65;;
41263;SDS011;26998;48.714;9.414;2022-07-23T08:40:49;6.90;;;6.30;;
41263;SDS011;26998;48.714;9.414;2022-07-23T08:43:22;6.90;;;6.20;;
41263;SDS011;26998;48.714;9.414;2022-07-23T08:45:51;7.05;;;6.35;;
41263;SDS011;26998;48.714;9.414;2022-07-23T08:48:20;7.75;;;6.88;;
41263;SDS011;26998;48.714;9.414;2022-07-23T08:50:49;7.75;;;6.28;;
41263;SDS011;26998;48.714;9.414;2022-07-23T08:53:17;8.07;;;6.55;;
41263;SDS011;26998;48.714;9.414;2022-07-23T08:55:45;7.93;;;7.13;;
41263;SDS011;26998;48.714;9.414;2022-07-23T08:58:13;7.72;;;6.88;;
41263;SDS011;26998;48.714;9.414;2022-07-23T09:00:40;7.60;;;6.80;;
41263;SDS011;26998;48.714;9.414;2022-07-23T09:03:07;7.28;;;6.38;;
41263;SDS011;26998;48.714;9.414;2022-07-23T09:05:33;6.85;;;6.25;;
41263;SDS011;26998;48.714;9.414;2022-07-23T09:16:03;7.18;;;6.47;;
41263;SDS011;26998;48.714;9.414;2022-07-23T09:18:37;8.85;;;6.07;;
41263;SDS011;26998;48.714;9.414;2022-07-23T09:23:40;7.20;;;6.50;;
41263;SDS011;26998;48.714;9.414;2022-07-23T09:31:33;8.73;;;6.78;;
41263;SDS011;26998;48.714;9.414;2022-07-23T09:34:13;7.13;;;6.55;;
41263;SDS011;26998;48.714;9.414;2022-07-23T09:36:40;7.10;;;6.40;;
41263;SDS011;26998;48.714;9.414;2022-07-23T09:39:08;6.80;;;6.15;;
41263;SDS011;26998;48.714;9.414;2022-07-23T09:41:45;7.78;;;6.88;;
41263;SDS011;26998;48.714;9.414;2022-07-23T09:44:16;7.57;;;6.85;;
41263;SDS011;26998;48.714;9.414;2022-07-23T09:46:44;7.90;;;6.70;;
41263;SDS011;26998;48.714;9.414;2022-07-23T09:49:13;8.63;;;6.70;;
41263;SDS011;26998;48.714;9.414;2022-07-23T09:51:45;7.28;;;6.57;;
41263;SDS011;26998;48.714;9.414;2022-07-23T09:54:46;7.50;;;6.90;;
41263;SDS011;26998;48.714;9.414;2022-07-23T09:57:06;7.25;;;6.55;;
41263;SDS011;26998;48.714;9.414;2022-07-23T09:59:36;7.07;;;6.40;;
41263;SDS011;26998;48.714;9.414;2022-07-23T10:02:05;7.23;;;6.53;;
41263;SDS011;26998;48.714;9.414;2022-07-23T10:04:33;7.88;;;6.95;;
41263;SDS011;26998;48.714;9.414;2022-07-23T10:07:04;7.32;;;6.63;;
41263;SDS011;26998;48.714;9.414;2022-07-23T10:09:32;6.93;;;6.28;;
41263;SDS011;26998;48.714;9.414;2022-07-23T10:12:02;9.82;;;6.57;;
41263;SDS011;26998;48.714;9.414;2022-07-23T10:14:30;6.95;;;6.25;;
41263;SDS011;26998;48.714;9.414;2022-07-23T10:16:57;7.30;;;6.57;;
41263;SDS011;26998;48.714;9.414;2022-07-23T10:19:23;6.85;;;5.93;;
41263;SDS011;26998;48.714;9.414;2022-07-23T10:21:52;6.30;;;5.75;;
41263;SDS011;26998;48.714;9.414;2022-07-23T10:24:27;6.97;;;6.30;;
41263;SDS011;26998;48.714;9.414;2022-07-23T10:30:03;6.95;;;6.25;;
41263;SDS011;26998;48.714;9.414;2022-07-23T10:37:36;5.85;;;5.35;;
41263;SDS011;26998;48.714;9.414;2022-07-23T10:40:09;6.32;;;5.72;;
41263;SDS011;26998;48.714;9.414;2022-07-23T10:42:45;5.35;;;4.95;;
41263;SDS011;26998;48.714;9.414;2022-07-23T10:48:15;7.63;;;5.80;;
41263;SDS011;26998;48.714;9.414;2022-07-23T10:50:44;6.10;;;5.50;;
41263;SDS011;26998;48.714;9.414;2022-07-23T10:56:15;6.20;;;5.68;;
41263;SDS011;26998;48.714;9.414;2022-07-23T10:58:46;6.68;;;6.07;;
41263;SDS011;26998;48.714;9.414;2022-07-23T11:04:05;5.88;;;5.38;;
41263;SDS011;26998;48.714;9.414;2022-07-23T11:09:28;7.35;;;6.70;;
41263;SDS011;26998;48.714;9.414;2022-07-23T11:17:27;7.20;;;5.80;;
41263;SDS011;26998;48.714;9.414;2022-07-23T11:20:12;6.03;;;5.43;;
41263;SDS011;26998;48.714;9.414;2022-07-23T11:25:08;5.97;;;5.38;;
41263;SDS011;26998;48.714;9.414;2022-07-23T11:27:39;6.65;;;5.80;;
41263;SDS011;26998;48.714;9.414;2022-07-23T11:35:42;5.78;;;5.28;;
41263;SDS011;26998;48.714;9.414;2022-07-23T11:38:13;6.75;;;6.15;;
41263;SDS011;26998;48.714;9.414;2022-07-23T11:40:43;6.78;;;5.63;;
41263;SDS011;26998;48.714;9.414;2022-07-23T11:43:11;6.45;;;5.88;;
41263;SDS011;26998;48.714;9.414;2022-07-23T11:45:48;6.80;;;5.65;;
41263;SDS011;26998;48.714;9.414;2022-07-23T11:50:50;6.03;;;5.43;;
41263;SDS011;26998;48.714;9.414;2022-07-23T11:53:29;6.35;;;5.55;;
41263;SDS011;26998;48.714;9.414;2022-07-23T11:56:03;6.43;;;5.82;;
41263;SDS011;26998;48.714;9.414;2022-07-23T11:58:31;6.18;;;5.57;;
41263;SDS011;26998;48.714;9.414;2022-07-23T12:00:58;5.50;;;5.00;;
41263;SDS011;26998;48.714;9.414;2022-07-23T12:03:24;6.18;;;5.57;;
41263;SDS011;26998;48.714;9.414;2022-07-23T12:05:55;6.85;;;6.15;;
41263;SDS011;26998;48.714;9.414;2022-07-23T12:08:23;6.30;;;5.35;;
41263;SDS011;26998;48.714;9.414;2022-07-23T12:10:50;5.25;;;4.75;;
41263;SDS011;26998;48.714;9.414;2022-07-23T12:13:17;5.72;;;5.18;;
41263;SDS011;26998;48.714;9.414;2022-07-23T12:15:50;6.03;;;5.53;;
41263;SDS011;26998;48.714;9.414;2022-07-23T12:18:24;5.57;;;5.10;;
41263;SDS011;26998;48.714;9.414;2022-07-23T12:20:53;5.85;;;5.20;;
41263;SDS011;26998;48.714;9.414;2022-07-23T12:23:23;6.03;;;5.38;;
41263;SDS011;26998;48.714;9.414;2022-07-23T12:25:52;5.43;;;4.85;;
41263;SDS011;26998;48.714;9.414;2022-07-23T12:28:27;6.13;;;5.20;;
41263;SDS011;26998;48.714;9.414;2022-07-23T12:30:55;6.28;;;5.68;;
41263;SDS011;26998;48.714;9.414;2022-07-23T12:36:14;6.05;;;5.45;;
41263;SDS011;26998;48.714;9.414;2022-07-23T12:38:42;9.52;;;8.60;;
41263;SDS011;26998;48.714;9.414;2022-07-23T12:41:10;5.95;;;5.35;;
41263;SDS011;26998;48.714;9.414;2022-07-23T12:43:37;6.40;;;5.60;;
41263;SDS011;26998;48.714;9.414;2022-07-23T12:46:12;6.15;;;5.60;;
41263;SDS011;26998;48.714;9.414;2022-07-23T12:51:19;6.55;;;5.63;;
41263;SDS011;26998;48.714;9.414;2022-07-23T12:53:51;5.88;;;5.38;;
41263;SDS011;26998;48.714;9.414;2022-07-23T12:56:26;6.32;;;5.80;;
41263;SDS011;26998;48.714;9.414;2022-07-23T12:58:59;5.97;;;5.47;;
41263;SDS011;26998;48.714;9.414;2022-07-23T13:01:32;5.80;;;5.30;;
41263;SDS011;26998;48.714;9.414;2022-07-23T13:06:36;6.30;;;5.70;;
41263;SDS011;26998;48.714;9.414;2022-07-23T13:09:06;6.00;;;5.45;;
41263;SDS011;26998;48.714;9.414;2022-07-23T13:11:34;6.50;;;5.72;;
41263;SDS011;26998;48.714;9.414;2022-07-23T13:14:01;6.35;;;5.75;;
41263;SDS011;26998;48.714;9.414;2022-07-23T13:16:28;5.97;;;5.40;;
41263;SDS011;26998;48.714;9.414;2022-07-23T13:18:56;6.53;;;5.97;;
41263;SDS011;26998;48.714;9.414;2022-07-23T13:21:24;6.32;;;5.80;;
41263;SDS011;26998;48.714;9.414;2022-07-23T13:23:52;6.75;;;6.13;;
41263;SDS011;26998;48.714;9.414;2022-07-23T13:26:19;6.32;;;5.72;;
41263;SDS011;26998;48.714;9.414;2022-07-23T13:28:47;7.28;;;6.35;;
41263;SDS011;26998;48.714;9.414;2022-07-23T13:31:14;6.10;;;5.50;;
41263;SDS011;26998;48.714;9.414;2022-07-23T13:33:41;7.97;;;6.10;;
41263;SDS011;26998;48.714;9.414;2022-07-23T13:36:08;6.40;;;5.80;;
41263;SDS011;26998;48.714;9.414;2022-07-23T13:38:35;6.32;;;5.80;;
41263;SDS011;26998;48.714;9.414;2022-07-23T13:41:01;7.28;;;5.95;;
41263;SDS011;26998;48.714;9.414;2022-07-23T13:43:28;7.65;;;6.20;;
41263;SDS011;26998;48.714;9.414;2022-07-23T13:46:01;6.13;;;5.63;;
41263;SDS011;26998;48.714;9.414;2022-07-23T13:48:28;6.15;;;5.65;;
41263;SDS011;26998;48.714;9.414;2022-07-23T13:50:55;6.40;;;5.80;;
41263;SDS011;26998;48.714;9.414;2022-07-23T13:53:22;6.80;;;5.65;;
41263;SDS011;26998;48.714;9.414;2022-07-23T13:55:51;6.80;;;6.20;;
41263;SDS011;26998;48.714;9.414;2022-07-23T13:58:20;6.55;;;5.95;;
41263;SDS011;26998;48.714;9.414;2022-07-23T14:00:50;6.35;;;5.80;;
41263;SDS011;26998;48.714;9.414;2022-07-23T14:03:20;6.90;;;6.22;;
41263;SDS011;26998;48.714;9.414;2022-07-23T14:05:48;7.07;;;6.37;;
41263;SDS011;26998;48.714;9.414;2022-07-23T14:08:14;6.78;;;6.18;;
41263;SDS011;26998;48.714;9.414;2022-07-23T14:10:41;6.93;;;6.22;;
41263;SDS011;26998;48.714;9.414;2022-07-23T14:13:08;7.03;;;6.32;;
41263;SDS011;26998;48.714;9.414;2022-07-23T14:15:35;7.30;;;6.70;;
41263;SDS011;26998;48.714;9.414;2022-07-23T14:18:02;7.50;;;6.65;;
41263;SDS011;26998;48.714;9.414;2022-07-23T14:20:28;7.15;;;6.53;;
41263;SDS011;26998;48.714;9.414;2022-07-23T14:22:55;7.78;;;6.15;;
41263;SDS011;26998;48.714;9.414;2022-07-23T14:25:24;8.43;;;7.13;;
41263;SDS011;26998;48.714;9.414;2022-07-23T14:27:51;6.80;;;6.20;;
41263;SDS011;26998;48.714;9.414;2022-07-23T14:30:18;7.45;;;6.80;;
41263;SDS011;26998;48.714;9.414;2022-07-23T14:32:48;7.53;;;6.75;;
41263;SDS011;26998;48.714;9.414;2022-07-23T14:35:15;7.57;;;6.45;;
41263;SDS011;26998;48.714;9.414;2022-07-23T14:37:45;6.72;;;6.10;;
41263;SDS011;26998;48.714;9.414;2022-07-23T14:40:11;6.32;;;5.80;;
41263;SDS011;26998;48.714;9.414;2022-07-23T14:42:38;7.30;;;6.60;;
41263;SDS011;26998;48.714;9.414;2022-07-23T14:45:04;7.22;;;6.45;;
41263;SDS011;26998;48.714;9.414;2022-07-23T14:47:36;7.05;;;6.30;;
41263;SDS011;26998;48.714;9.414;2022-07-23T14:50:02;6.97;;;6.38;;
41263;SDS011;26998;48.714;9.414;2022-07-23T14:52:29;6.88;;;6.28;;
41263;SDS011;26998;48.714;9.414;2022-07-23T14:54:56;8.65;;;6.53;;
41263;SDS011;26998;48.714;9.414;2022-07-23T14:57:22;7.20;;;6.50;;
41263;SDS011;26998;48.714;9.414;2022-07-23T14:59:53;7.55;;;6.88;;
41263;SDS011;26998;48.714;9.414;2022-07-23T15:02:21;7.60;;;6.93;;
41263;SDS011;26998;48.714;9.414;2022-07-23T15:04:47;8.00;;;7.20;;
41263;SDS011;26998;48.714;9.414;2022-07-23T15:07:14;8.00;;;7.25;;
41263;SDS011;26998;48.714;9.414;2022-07-23T15:09:40;7.03;;;6.20;;
41263;SDS011;26998;48.714;9.414;2022-07-23T15:12:07;8.77;;;7.25;;
41263;SDS011;26998;48.714;9.414;2022-07-23T15:14:38;9.90;;;7.18;;
41263;SDS011;26998;48.714;9.414;2022-07-23T15:17:04;7.93;;;7.15;;
41263;SDS011;26998;48.714;9.414;2022-07-23T15:19:31;7.53;;;6.80;;
41263;SDS011;26998;48.714;9.414;2022-07-23T15:21:57;9.02;;;6.97;;
41263;SDS011;26998;48.714;9.414;2022-07-23T15:24:24;8.13;;;7.30;;
41263;SDS011;26998;48.714;9.414;2022-07-23T15:26:50;8.10;;;7.35;;
41263;SDS011;26998;48.714;9.414;2022-07-23T15:29:17;7.68;;;6.90;;
41263;SDS011;26998;48.714;9.414;2022-07-23T15:31:46;7.35;;;6.65;;
41263;SDS011;26998;48.714;9.414;2022-07-23T15:34:15;8.15;;;7.10;;
41263;SDS011;26998;48.714;9.414;2022-07-23T15:36:42;7.53;;;6.82;;
41263;SDS011;26998;48.714;9.414;2022-07-23T15:39:09;8.05;;;6.57;;
41263;SDS011;26998;48.714;9.414;2022-07-23T15:41:35;7.43;;;6.82;;
41263;SDS011;26998;48.714;9.414;2022-07-23T15:44:02;6.93;;;6.28;;
41263;SDS011;26998;48.714;9.414;2022-07-23T15:46:48;7.85;;;7.15;;
41263;SDS011;26998;48.714;9.414;2022-07-23T15:49:15;7.63;;;6.70;;
41263;SDS011;26998;48.714;9.414;2022-07-23T15:51:44;7.10;;;6.50;;